sim
Sign-in with your pilot id or email,
or register
Callsign
Passwort

Schedule Details

Flight Number: DLH415 (1)
Departure: Washington Dulles International Airport (KIAD) at 03:30
Arrival: Munich Airport (EDDM) at 11:45
Route: Lufthansa Passenger Schedule. Enter filed route here before submitting Pirep.

Weather Information
Getting current METAR information for KIAD 250552Z 00000KT 10SM BKN250 16/15 A3005 RMK AO2 SLP173 T01560150 10178 20150 58003 $
Getting current METAR information for EDDM 250550Z 18005KT 9999 -RA FEW030 13/11 Q1000 NOSIG

Schedule Frequency

Route Map